Time;durP1;ratioP1;P1;durP2;ratioP2;P2;SDS_P1;SDS_P2;PMS_P1;PMS_P2;Temp;Humidity;BMP_temperature;BMP_pressure;BME280_temperature;BME280_humidity;BME280_pressure;Samples;Min_cycle;Max_cycle;Signal;HPM_P1;HPM_P2
2022/07/20 00:01:17;;;;;;;7.25;2.55;;;;;;;-144.47;33.51;52895.81;4980086;28;20089;-66
2022/07/20 00:03:45;;;;;;;7.22;2.65;;;;;;;-144.47;33.72;52866.03;4991584;28;20057;-66
2022/07/20 00:06:11;;;;;;;8.70;2.85;;;;;;;-144.47;33.87;52877.94;4977591;28;20049;-69
2022/07/20 00:11:21;;;;;;;8.40;2.58;;;;;;;-144.47;34.13;52901.78;4986117;28;20452;-66
2022/07/20 00:13:52;;;;;;;8.85;2.65;;;;;;;-144.47;34.17;52921.63;4985863;28;20030;-67
2022/07/20 00:16:18;;;;;;;8.98;3.05;;;;;;;-144.47;34.29;52860.06;4971911;28;20500;-67
2022/07/20 00:18:43;;;;;;;5.38;2.50;;;;;;;-144.47;34.44;52941.50;4987466;28;20034;-66
2022/07/20 00:21:09;;;;;;;8.35;2.95;;;;;;;-144.47;34.65;52897.81;4987784;28;20034;-68
2022/07/20 00:23:34;;;;;;;7.97;2.80;;;;;;;-144.47;34.66;52899.78;4974651;28;20041;-67
2022/07/20 00:25:59;;;;;;;10.82;2.72;;;;;;;-144.47;34.55;52911.69;4979543;28;20491;-67
2022/07/20 00:28:25;;;;;;;6.05;2.45;;;;;;;-144.47;34.75;52931.56;4972647;28;20523;-64
2022/07/20 00:30:50;;;;;;;5.68;2.58;;;;;;;-144.47;34.94;52885.88;4973930;28;20460;-66
2022/07/20 00:33:15;;;;;;;11.73;3.50;;;;;;;-144.47;34.82;52915.69;4978367;28;20078;-67
2022/07/20 00:35:41;;;;;;;11.10;2.97;;;;;;;-144.47;35.06;52911.69;4970325;28;20034;-67
2022/07/20 00:38:06;;;;;;;7.32;2.92;;;;;;;-144.47;35.21;52915.69;4985306;28;20080;-68
2022/07/20 00:40:31;;;;;;;8.57;2.83;;;;;;;-144.47;35.13;52919.66;4980836;28;20054;-66
2022/07/20 00:42:57;;;;;;;10.43;3.00;;;;;;;-144.47;35.19;52907.72;4978014;28;20057;-68
2022/07/20 00:45:22;;;;;;;10.70;3.05;;;;;;;-144.47;35.22;52901.78;4974107;28;20121;-69
2022/07/20 00:47:48;;;;;;;8.40;2.72;;;;;;;-144.47;35.31;52905.75;4969488;28;20027;-65
2022/07/20 00:50:14;;;;;;;9.68;2.80;;;;;;;-144.47;35.31;52913.69;4969989;28;20517;-66
2022/07/20 00:52:40;;;;;;;9.52;3.28;;;;;;;-144.47;35.59;52945.47;4977668;28;20058;-65
2022/07/20 00:55:07;;;;;;;9.20;2.75;;;;;;;-144.47;35.52;52907.72;4975851;28;20031;-68
2022/07/20 00:57:32;;;;;;;6.40;2.67;;;;;;;-144.47;35.53;52913.69;4973833;28;20405;-67
2022/07/20 00:59:58;;;;;;;11.70;2.88;;;;;;;-144.47;35.67;52931.56;4981317;28;20467;-67
2022/07/20 01:02:24;;;;;;;10.63;2.78;;;;;;;-144.47;35.76;52903.75;4983485;28;20116;-65
2022/07/20 01:04:49;;;;;;;6.72;3.00;;;;;;;-144.47;35.74;52921.63;4972960;28;20133;-69
2022/07/20 01:07:15;;;;;;;9.27;2.72;;;;;;;-144.47;35.95;52913.69;4979231;28;20093;-65
2022/07/20 01:09:40;;;;;;;7.45;2.50;;;;;;;-144.47;36.07;52949.44;4986162;28;20026;-65
2022/07/20 01:12:08;;;;;;;8.93;2.95;;;;;;;-144.47;36.20;52895.81;4989196;28;20108;-65
2022/07/20 01:14:34;;;;;;;5.43;2.65;;;;;;;-144.47;36.23;52913.69;4979379;28;20034;-65
2022/07/20 01:16:59;;;;;;;8.05;2.50;;;;;;;-144.47;36.41;52927.59;4968715;28;20050;-69
2022/07/20 01:19:24;;;;;;;8.57;2.65;;;;;;;-144.47;36.36;52911.69;4973212;28;20026;-65
2022/07/20 01:21:50;;;;;;;5.60;2.55;;;;;;;-144.47;36.44;52915.69;4979256;28;20373;-68
2022/07/20 01:24:15;;;;;;;6.88;2.70;;;;;;;-144.47;36.48;52919.66;4981980;28;20062;-67
2022/07/20 01:26:43;;;;;;;6.95;2.78;;;;;;;-144.47;36.60;52929.59;4981670;28;20117;-68
2022/07/20 01:29:09;;;;;;;9.90;3.30;;;;;;;-144.47;36.83;52913.69;4973043;28;20096;-67
2022/07/20 01:31:35;;;;;;;7.85;2.67;;;;;;;-144.47;37.10;52947.47;4969977;28;20039;-66
2022/07/20 01:34:01;;;;;;;8.02;3.13;;;;;;;-144.47;37.14;52939.50;4975719;28;20109;-68
2022/07/20 01:36:26;;;;;;;11.00;3.63;;;;;;;-144.47;37.07;52925.59;4987855;28;20049;-67
2022/07/20 01:38:52;;;;;;;10.43;2.97;;;;;;;-144.47;37.17;52907.72;4987370;28;20026;-70
2022/07/20 01:41:17;;;;;;;10.32;3.22;;;;;;;-144.47;37.57;52957.38;4979545;28;20396;-68
2022/07/20 01:43:43;;;;;;;8.48;3.30;;;;;;;-144.47;37.57;52939.50;4971699;28;20026;-66
2022/07/20 01:46:08;;;;;;;10.73;2.88;;;;;;;-144.47;37.55;52935.53;4981347;28;20465;-69
2022/07/20 01:48:33;;;;;;;5.07;2.65;;;;;;;-144.47;37.65;52911.69;4978758;28;20049;-65
2022/07/20 01:50:59;;;;;;;9.48;3.00;;;;;;;-144.47;37.97;52951.44;4975393;28;20026;-68
2022/07/20 01:53:24;;;;;;;10.80;2.90;;;;;;;-144.47;37.90;52953.41;4974953;28;20019;-66
2022/07/20 01:55:51;;;;;;;7.55;3.05;;;;;;;-144.47;37.95;52927.59;4981096;28;20148;-66
2022/07/20 01:58:17;;;;;;;11.15;3.00;;;;;;;-144.47;38.24;52959.38;4974539;28;20089;-65
2022/07/20 02:00:42;;;;;;;7.20;2.63;;;;;;;-144.47;38.15;52947.47;4975971;28;20030;-66
2022/07/20 02:03:08;;;;;;;11.27;2.83;;;;;;;-144.47;38.27;52971.28;4972183;28;20035;-67
2022/07/20 02:05:34;;;;;;;7.97;2.85;;;;;;;-144.47;38.39;52945.47;4973797;28;20099;-65
2022/07/20 02:07:59;;;;;;;6.18;2.78;;;;;;;-144.47;38.31;52935.53;4976456;28;20101;-68
2022/07/20 02:10:24;;;;;;;12.50;3.17;;;;;;;-144.47;38.37;52923.63;4980526;28;20030;-68
2022/07/20 02:12:50;;;;;;;7.35;3.03;;;;;;;-144.47;38.34;52959.38;4982653;28;20114;-68
2022/07/20 02:16:14;;;;;;;8.88;3.47;;;;;;;-144.47;38.62;52947.47;4980110;28;20033;-66
2022/07/20 02:18:09;;;;;;;10.75;3.47;;;;;;;-144.47;38.56;52939.50;4972440;28;20122;-68
2022/07/20 02:20:35;;;;;;;8.25;2.90;;;;;;;-144.47;38.69;52927.59;4973708;28;20034;-67
2022/07/20 02:23:02;;;;;;;7.75;3.20;;;;;;;-144.47;38.79;52929.59;4973558;28;20382;-66
2022/07/20 02:25:28;;;;;;;9.13;3.13;;;;;;;-144.47;38.73;52925.59;4979901;28;20100;-65
2022/07/20 02:27:53;;;;;;;7.70;2.72;;;;;;;-144.47;38.92;52907.72;4969024;28;20133;-67
2022/07/20 02:30:19;;;;;;;8.48;2.88;;;;;;;-144.47;39.08;52935.53;4968663;28;20132;-67
2022/07/20 02:32:44;;;;;;;6.22;2.70;;;;;;;-144.47;39.21;52955.41;4980851;28;20149;-66
2022/07/20 02:35:09;;;;;;;9.15;3.05;;;;;;;-144.47;39.35;52965.34;4979380;28;20065;-67
2022/07/20 02:37:35;;;;;;;9.63;3.05;;;;;;;-144.47;39.41;52947.47;4987744;28;20030;-65
2022/07/20 02:40:00;;;;;;;8.95;2.72;;;;;;;-144.47;39.69;52939.50;4977860;28;20026;-66
2022/07/20 02:42:25;;;;;;;5.80;2.70;;;;;;;-144.47;39.56;52937.53;4968174;28;20089;-67
2022/07/20 02:44:51;;;;;;;7.47;2.80;;;;;;;-144.47;39.94;52953.41;4975988;28;20133;-66
2022/07/20 02:47:16;;;;;;;8.23;2.90;;;;;;;-144.47;39.81;52915.69;4980650;28;20456;-65
2022/07/20 02:49:41;;;;;;;8.68;2.90;;;;;;;-144.47;39.88;52963.34;4976192;28;20050;-67
2022/07/20 02:52:07;;;;;;;9.48;3.05;;;;;;;-144.47;39.97;52963.34;4973032;28;20096;-66
2022/07/20 02:54:32;;;;;;;17.65;3.22;;;;;;;-144.47;40.08;52935.53;4976336;28;20093;-65
2022/07/20 02:56:58;;;;;;;11.35;3.17;;;;;;;-144.47;40.14;52959.38;4974252;28;20047;-65
2022/07/20 02:59:23;;;;;;;7.53;2.92;;;;;;;-144.47;40.16;52967.31;4983849;28;20068;-66
2022/07/20 03:01:48;;;;;;;7.40;2.83;;;;;;;-144.47;40.23;52969.31;4981238;28;20105;-67
2022/07/20 03:04:14;;;;;;;8.70;2.92;;;;;;;-144.47;40.34;52937.53;4981966;28;20045;-65
2022/07/20 03:06:39;;;;;;;9.05;3.20;;;;;;;-144.47;40.38;52975.25;4982158;28;20027;-65
2022/07/20 03:09:04;;;;;;;8.30;3.10;;;;;;;-144.47;40.61;52959.38;4974121;28;20019;-66
2022/07/20 03:11:30;;;;;;;8.90;3.20;;;;;;;-144.47;40.51;52971.28;4971677;28;20034;-65
2022/07/20 03:13:55;;;;;;;8.68;3.10;;;;;;;-144.47;40.66;52963.34;4982470;28;20034;-65
2022/07/20 03:16:20;;;;;;;6.07;2.88;;;;;;;-144.47;40.61;52979.22;4971453;28;20027;-65
2022/07/20 03:18:46;;;;;;;6.18;3.35;;;;;;;-144.47;40.69;52963.34;4983818;28;20496;-66
2022/07/20 03:21:11;;;;;;;15.45;3.45;;;;;;;-144.47;40.86;52955.41;4978889;28;20458;-67
2022/07/20 03:23:36;;;;;;;11.32;3.47;;;;;;;-144.47;40.93;52953.41;4979684;28;20181;-66
2022/07/20 03:26:02;;;;;;;6.57;2.92;;;;;;;-144.47;41.03;52967.31;4971608;28;20485;-66
2022/07/20 03:28:27;;;;;;;14.30;3.33;;;;;;;-144.47;40.98;52959.38;4997586;23;20035;-63
2022/07/20 03:30:52;;;;;;;6.93;2.67;;;;;;;-144.47;41.05;52983.22;5005329;28;20038;-62
2022/07/20 03:33:18;;;;;;;7.38;2.97;;;;;;;-144.47;41.00;52951.44;5022296;28;20041;-64
2022/07/20 03:35:43;;;;;;;14.07;3.33;;;;;;;-144.47;40.99;52957.38;5010728;28;20030;-64
2022/07/20 03:38:09;;;;;;;6.82;3.13;;;;;;;-144.47;41.00;52957.38;5009918;28;20029;-65
2022/07/20 03:40:34;;;;;;;16.20;3.45;;;;;;;-144.47;41.10;52959.38;4994907;28;20034;-65
2022/07/20 03:42:59;;;;;;;12.35;3.22;;;;;;;-144.47;41.06;52985.19;4988346;28;20519;-64
2022/07/20 03:45:25;;;;;;;8.93;2.97;;;;;;;-144.47;41.09;52947.47;4976279;28;20563;-66
2022/07/20 03:47:50;;;;;;;11.35;3.03;;;;;;;-144.47;41.22;52941.50;4991437;28;20085;-65
2022/07/20 03:50:15;;;;;;;6.75;2.80;;;;;;;-144.47;41.35;52949.44;4996447;28;20021;-64
2022/07/20 03:52:41;;;;;;;6.40;2.95;;;;;;;-144.47;41.55;52941.50;4980528;28;20026;-63
2022/07/20 03:55:06;;;;;;;9.57;2.72;;;;;;;-144.47;41.61;52989.16;4991490;28;20036;-64
2022/07/20 03:57:32;;;;;;;10.07;2.80;;;;;;;-144.47;41.72;52943.47;4984730;28;20118;-64
2022/07/20 03:59:57;;;;;;;9.18;2.92;;;;;;;-144.47;41.58;52951.44;4982267;28;20058;-65
2022/07/20 04:02:22;;;;;;;11.80;3.63;;;;;;;-144.47;41.77;52971.28;4987438;28;20476;-64
2022/07/20 04:04:48;;;;;;;8.65;2.92;;;;;;;-144.47;41.92;52977.25;4971794;28;20023;-64
2022/07/20 04:07:13;;;;;;;14.00;3.35;;;;;;;-144.47;41.87;52973.28;4985201;28;20025;-65
2022/07/20 04:09:44;;;;;;;8.43;3.63;;;;;;;-144.47;41.86;52969.31;4976602;28;20145;-65
2022/07/20 04:12:16;;;;;;;8.77;3.08;;;;;;;-144.47;41.93;52997.09;4990820;28;20034;-64
2022/07/20 04:14:42;;;;;;;10.93;3.58;;;;;;;-144.47;41.88;52961.34;4988015;28;20047;-65
2022/07/20 04:17:07;;;;;;;10.07;4.18;;;;;;;-144.47;41.88;52971.28;4974825;28;20032;-66
2022/07/20 04:19:35;;;;;;;20.17;4.95;;;;;;;-144.47;42.07;52969.31;4974201;28;20369;-66
2022/07/20 04:22:00;;;;;;;17.83;3.75;;;;;;;-144.47;42.11;52967.31;4986389;28;20053;-66
2022/07/20 04:24:25;;;;;;;12.05;3.17;;;;;;;-144.47;42.17;52969.31;4987330;28;20026;-64
2022/07/20 04:26:51;;;;;;;12.88;3.22;;;;;;;-144.47;42.10;52969.31;4977462;28;20188;-65
2022/07/20 04:29:17;;;;;;;12.27;3.00;;;;;;;-144.47;42.30;52935.53;4996172;28;20030;-66
2022/07/20 04:31:43;;;;;;;8.68;3.22;;;;;;;-144.47;42.30;52983.22;4978394;28;20137;-65
2022/07/20 04:34:08;;;;;;;9.95;3.35;;;;;;;-144.47;42.32;52983.22;4991679;28;20030;-63
2022/07/20 04:36:33;;;;;;;7.90;3.35;;;;;;;-144.47;42.30;52991.16;4980845;28;20023;-65
2022/07/20 04:38:59;;;;;;;19.75;3.38;;;;;;;-144.47;42.40;52941.50;4988969;28;20552;-63
2022/07/20 04:41:24;;;;;;;12.15;3.13;;;;;;;-144.47;42.13;52935.53;4981048;28;20027;-64
2022/07/20 04:43:49;;;;;;;6.70;3.53;;;;;;;-144.47;42.06;52999.09;4981337;28;20157;-64
2022/07/20 04:46:15;;;;;;;10.15;3.30;;;;;;;-144.47;41.97;52979.22;4971091;28;20102;-64
2022/07/20 04:48:40;;;;;;;6.88;2.97;;;;;;;-144.47;42.05;52967.31;4982287;28;20025;-67
2022/07/20 04:51:06;;;;;;;9.48;2.92;;;;;;;-144.47;42.02;53013.00;4996202;28;20026;-64
2022/07/20 04:53:31;;;;;;;13.43;3.22;;;;;;;-144.47;42.02;52973.28;4995603;28;20038;-64
2022/07/20 04:55:56;;;;;;;14.38;3.50;;;;;;;-144.47;41.72;52969.31;4979009;28;20057;-64
2022/07/20 04:58:22;;;;;;;13.43;3.42;;;;;;;-144.47;41.58;52949.44;4972071;28;20053;-65
2022/07/20 05:00:47;;;;;;;8.48;2.92;;;;;;;-144.47;41.35;52987.19;4988800;28;20030;-66
2022/07/20 05:03:12;;;;;;;11.65;3.72;;;;;;;-144.47;41.13;52961.34;4995077;28;20502;-65
2022/07/20 05:05:38;;;;;;;11.45;3.50;;;;;;;-144.47;40.96;52931.56;4986769;28;20128;-67
2022/07/20 05:08:04;;;;;;;13.02;3.67;;;;;;;-144.47;41.12;52947.47;4985186;28;20072;-67
2022/07/20 05:10:30;;;;;;;13.25;3.30;;;;;;;-144.47;40.83;52945.47;4990972;28;20046;-66
2022/07/20 05:12:55;;;;;;;26.77;4.00;;;;;;;-144.47;40.89;52961.34;4997938;28;20475;-66
2022/07/20 05:15:23;;;;;;;8.15;3.22;;;;;;;-144.47;40.89;52953.41;4989548;28;20034;-66
2022/07/20 05:17:51;;;;;;;22.88;5.15;;;;;;;-144.47;40.93;52943.47;4971261;28;20027;-68
2022/07/20 05:20:17;;;;;;;15.18;3.83;;;;;;;-144.47;40.85;52955.41;4980785;28;20041;-67
2022/07/20 05:22:42;;;;;;;19.42;4.00;;;;;;;-144.47;40.68;52919.66;4987381;28;20026;-64
2022/07/20 05:25:08;;;;;;;16.20;4.20;;;;;;;-144.47;40.48;52891.84;4978540;28;20014;-67
2022/07/20 05:27:34;;;;;;;22.70;3.85;;;;;;;-144.47;40.30;52919.66;4974319;28;20118;-65
2022/07/20 05:29:59;;;;;;;10.30;3.70;;;;;;;-144.47;40.25;52953.41;4979094;28;20515;-66
2022/07/20 05:32:25;;;;;;;13.45;3.25;;;;;;;-144.47;40.16;52937.53;4977505;28;20031;-67
2022/07/20 05:34:50;;;;;;;20.67;4.75;;;;;;;-144.47;40.05;52971.28;4993635;28;20047;-65
2022/07/20 05:37:15;;;;;;;14.88;3.78;;;;;;;-144.47;39.93;52947.47;4983266;28;20058;-65
2022/07/20 05:39:41;;;;;;;15.35;4.00;;;;;;;-144.47;39.81;52907.72;4985869;28;20026;-66
2022/07/20 05:42:06;;;;;;;20.05;4.60;;;;;;;-144.47;39.93;52955.41;4994370;28;20036;-64
2022/07/20 05:44:32;;;;;;;12.60;4.32;;;;;;;-144.47;40.02;52933.56;4978193;28;20027;-66
2022/07/20 05:46:57;;;;;;;13.10;4.32;;;;;;;-144.47;39.90;52961.34;4976165;28;20027;-67
2022/07/20 05:49:22;;;;;;;9.93;3.97;;;;;;;-144.47;39.76;52937.53;4990209;28;20026;-65
2022/07/20 05:51:51;;;;;;;11.82;3.97;;;;;;;-144.47;39.65;52933.56;4990042;28;20590;-66
2022/07/20 05:54:16;;;;;;;11.75;3.45;;;;;;;-144.47;39.69;52969.31;4981778;28;20474;-66
2022/07/20 05:56:42;;;;;;;17.85;3.85;;;;;;;-144.47;39.56;52919.66;4983768;28;20042;-65
2022/07/20 05:59:07;;;;;;;10.93;4.38;;;;;;;-144.47;39.60;52937.53;4981030;28;20030;-66
2022/07/20 06:01:33;;;;;;;14.38;4.05;;;;;;;-144.47;39.69;52949.44;4984837;28;20018;-66
2022/07/20 06:03:59;;;;;;;14.70;4.15;;;;;;;-144.47;39.62;52915.69;4987312;28;20022;-65
2022/07/20 06:06:24;;;;;;;10.38;4.40;;;;;;;-144.47;39.29;52947.47;4974328;28;20034;-65
2022/07/20 06:08:50;;;;;;;13.50;4.78;;;;;;;-144.47;39.38;52919.66;4970786;28;20388;-66
2022/07/20 06:11:15;;;;;;;9.70;3.78;;;;;;;-144.47;39.25;52929.59;4984507;28;20057;-66
2022/07/20 06:13:40;;;;;;;13.05;3.78;;;;;;;-144.47;39.26;52915.69;4992557;28;20156;-65
2022/07/20 06:16:06;;;;;;;17.73;4.13;;;;;;;-144.47;39.31;52949.44;4988245;28;20035;-65
2022/07/20 06:18:31;;;;;;;15.50;5.18;;;;;;;-144.47;39.17;52933.56;4983028;28;20018;-70
2022/07/20 06:20:57;;;;;;;14.90;3.70;;;;;;;-144.47;39.11;52941.50;4971667;28;20022;-68
2022/07/20 06:23:22;;;;;;;29.98;4.68;;;;;;;-144.47;39.15;52935.53;4983391;28;20451;-66
2022/07/20 06:25:48;;;;;;;8.85;3.70;;;;;;;-144.47;38.96;52961.34;4970331;28;20034;-67
2022/07/20 06:28:13;;;;;;;9.73;3.58;;;;;;;-144.47;39.10;52921.63;4983631;28;20037;-65
2022/07/20 06:30:39;;;;;;;11.88;3.70;;;;;;;-144.47;38.97;52931.56;4970826;28;20583;-66
2022/07/20 06:33:04;;;;;;;5.90;3.40;;;;;;;-144.47;38.81;52959.38;4981366;28;20527;-65
2022/07/20 06:35:32;;;;;;;8.70;3.72;;;;;;;-144.47;38.77;52917.66;4977357;28;20037;-65
2022/07/20 06:37:58;;;;;;;8.82;3.15;;;;;;;-144.47;38.24;52927.59;4978841;28;20053;-65
2022/07/20 06:40:23;;;;;;;8.65;3.60;;;;;;;-144.47;38.07;52911.69;4974610;28;20399;-66
2022/07/20 06:42:49;;;;;;;11.80;3.20;;;;;;;-144.47;38.07;52923.63;4973889;28;20559;-65
2022/07/20 06:45:14;;;;;;;18.63;4.40;;;;;;;-144.47;38.02;52949.44;4982786;28;20022;-66
2022/07/20 06:47:40;;;;;;;15.88;3.30;;;;;;;-144.47;38.20;52957.38;4991325;28;20468;-65
2022/07/20 06:50:06;;;;;;;16.52;3.63;;;;;;;-144.47;37.92;52923.63;4988491;28;20080;-67
2022/07/20 06:52:32;;;;;;;10.60;3.20;;;;;;;-144.47;37.76;52943.47;4973694;28;20033;-66
2022/07/20 06:54:58;;;;;;;15.25;3.50;;;;;;;-144.47;37.52;52921.63;4980253;28;20508;-67
2022/07/20 06:57:23;;;;;;;14.90;4.20;;;;;;;-144.47;37.50;52937.53;4991836;28;20150;-67
2022/07/20 06:59:49;;;;;;;9.90;3.38;;;;;;;-144.47;37.24;52913.69;4992492;28;20097;-65
2022/07/20 07:02:14;;;;;;;9.88;3.30;;;;;;;-144.47;37.04;52923.63;4992014;28;20018;-66
2022/07/20 07:04:40;;;;;;;7.57;3.17;;;;;;;-144.47;37.10;52917.66;4979849;28;20022;-67
2022/07/20 07:07:09;;;;;;;12.05;3.60;;;;;;;-144.47;37.04;52941.50;4977256;28;20058;-68
2022/07/20 07:09:35;;;;;;;11.85;3.33;;;;;;;-144.47;37.11;52941.50;4980987;28;20109;-66
2022/07/20 07:12:00;;;;;;;10.20;3.40;;;;;;;-144.47;36.96;52887.88;4992766;28;20121;-66
2022/07/20 07:14:26;;;;;;;10.15;3.80;;;;;;;-144.47;36.83;52911.69;4999843;28;20091;-65
2022/07/20 07:16:53;;;;;;;10.55;3.47;;;;;;;-144.47;36.85;52919.66;4980753;28;20046;-66
2022/07/20 07:19:18;;;;;;;7.82;3.20;;;;;;;-144.47;36.23;52909.72;4984135;28;20026;-66
2022/07/20 07:21:44;;;;;;;10.80;3.60;;;;;;;-144.47;35.96;52917.66;4973097;28;20081;-66
2022/07/20 07:24:09;;;;;;;22.08;3.50;;;;;;;-144.47;35.57;52957.38;4980313;28;20026;-65
2022/07/20 07:26:34;;;;;;;12.48;3.50;;;;;;;-144.47;35.55;52917.66;4989266;28;20046;-67
2022/07/20 07:29:00;;;;;;;13.38;3.35;;;;;;;-144.47;35.19;52891.84;4972582;28;20030;-66
2022/07/20 07:31:25;;;;;;;14.93;3.78;;;;;;;-144.47;35.27;52873.97;4989688;28;20479;-67
2022/07/20 07:33:50;;;;;;;15.25;3.38;;;;;;;-144.47;35.25;52864.03;4988970;28;20494;-66
2022/07/20 07:36:16;;;;;;;10.90;3.40;;;;;;;-144.47;35.07;52925.59;4984491;28;20030;-66
2022/07/20 07:38:42;;;;;;;9.95;3.30;;;;;;;-144.47;35.11;52903.75;4979833;28;20065;-67
2022/07/20 07:41:07;;;;;;;10.27;3.40;;;;;;;-144.47;35.05;52887.88;4991516;28;20456;-68
2022/07/20 07:43:33;;;;;;;9.52;2.97;;;;;;;-144.47;34.85;52895.81;4978161;28;20105;-68
2022/07/20 07:45:59;;;;;;;6.93;3.15;;;;;;;-144.47;34.84;52891.84;4979287;28;20101;-65
2022/07/20 07:48:24;;;;;;;9.35;3.58;;;;;;;-144.47;35.26;52895.81;4971091;28;20077;-66
2022/07/20 07:50:49;;;;;;;14.57;3.38;;;;;;;-144.47;34.91;52887.88;4972651;28;20030;-66
2022/07/20 07:53:15;;;;;;;12.27;3.70;;;;;;;-144.47;34.79;52891.84;4985595;28;20035;-68
2022/07/20 07:55:41;;;;;;;13.13;3.20;;;;;;;-144.47;34.65;52848.16;4985203;28;20027;-69
2022/07/20 07:58:08;;;;;;;13.25;3.40;;;;;;;-144.47;34.32;52881.91;4971454;28;20038;-67
2022/07/20 08:00:35;;;;;;;10.65;3.20;;;;;;;-144.47;34.08;52887.88;4984514;28;20779;-68
2022/07/20 08:03:01;;;;;;;10.63;3.35;;;;;;;-144.47;34.27;52907.72;4972384;28;20041;-67
2022/07/20 08:05:27;;;;;;;12.27;3.10;;;;;;;-144.47;34.42;52911.69;4972134;28;20143;-66
2022/07/20 08:07:52;;;;;;;12.45;3.30;;;;;;;-144.47;34.41;52879.94;4991221;28;20051;-65
2022/07/20 08:10:17;;;;;;;9.40;3.08;;;;;;;-144.47;34.17;52870.00;4983046;28;20468;-64
2022/07/20 08:12:43;;;;;;;13.52;3.83;;;;;;;-144.47;33.69;52873.97;4998315;28;20026;-65
2022/07/20 08:15:10;;;;;;;18.38;3.25;;;;;;;-144.47;33.54;52875.94;5003202;28;20472;-65
2022/07/20 08:17:35;;;;;;;14.98;3.65;;;;;;;-144.47;33.32;52887.88;4979003;28;20034;-65
2022/07/20 08:20:01;;;;;;;13.45;3.38;;;;;;;-144.47;33.32;52887.88;4991776;28;20036;-66
2022/07/20 08:22:26;;;;;;;10.65;3.15;;;;;;;-144.47;32.15;52864.03;4973258;28;20046;-65
2022/07/20 08:24:51;;;;;;;9.55;2.80;;;;;;;-144.47;31.17;52887.88;4986687;28;20461;-66
2022/07/20 08:27:17;;;;;;;8.25;2.75;;;;;;;-144.47;31.07;52856.09;4992318;28;20018;-65
2022/07/20 08:29:42;;;;;;;17.30;3.20;;;;;;;-144.47;30.90;52838.22;4991600;28;20026;-66
2022/07/20 08:32:08;;;;;;;11.07;3.00;;;;;;;-144.47;30.97;52864.03;4991498;28;20018;-66
2022/07/20 08:34:33;;;;;;;12.85;3.20;;;;;;;-144.47;31.19;52818.34;4981118;28;20054;-66
2022/07/20 08:36:58;;;;;;;9.98;2.95;;;;;;;-144.47;30.76;52887.88;4977628;28;20089;-65
2022/07/20 08:39:25;;;;;;;14.20;3.20;;;;;;;-144.47;29.54;52862.06;4991262;28;20206;-65
2022/07/20 08:41:50;;;;;;;14.32;2.40;;;;;;;-144.47;29.45;52854.09;4983880;28;20054;-66
2022/07/20 08:44:16;;;;;;;12.27;2.78;;;;;;;-144.47;29.60;52870.00;4971537;28;20406;-67
2022/07/20 08:46:45;;;;;;;9.25;2.75;;;;;;;-144.47;29.79;52848.16;4977104;28;20062;-65
2022/07/20 08:49:13;;;;;;;12.60;2.83;;;;;;;-144.47;29.52;52864.03;4990241;28;20089;-65
2022/07/20 08:51:39;;;;;;;10.02;2.58;;;;;;;-144.47;29.62;52840.19;4977885;28;20032;-64
2022/07/20 08:54:05;;;;;;;13.15;2.95;;;;;;;-144.47;29.36;52848.16;4975109;28;20118;-65
2022/07/20 08:56:30;;;;;;;7.38;3.00;;;;;;;-144.47;29.50;52852.13;4970297;28;20023;-64
2022/07/20 08:58:56;;;;;;;5.72;2.22;;;;;;;-144.47;29.28;52832.25;4971251;28;20035;-67
2022/07/20 09:01:21;;;;;;;8.57;2.78;;;;;;;-144.47;28.59;52824.31;4985968;28;20520;-66
2022/07/20 09:04:10;;;;;;;11.38;2.53;;;;;;;-144.47;28.02;52816.38;4979722;28;20433;-65
2022/07/20 09:06:43;;;;;;;6.32;2.60;;;;;;;-144.47;28.09;52834.25;4978865;28;20495;-66
2022/07/20 09:09:09;;;;;;;9.60;2.83;;;;;;;-144.47;28.24;52834.25;4976803;28;20508;-65
2022/07/20 09:11:35;;;;;;;14.95;2.53;;;;;;;-144.47;27.55;52822.31;4991416;28;20023;-67
2022/07/20 09:14:00;;;;;;;11.43;2.55;;;;;;;-144.47;27.73;52804.44;4993780;28;20479;-66
2022/07/20 09:16:42;;;;;;;8.23;2.90;;;;;;;-144.47;27.56;52834.25;4984624;28;20054;-66
2022/07/20 09:19:08;;;;;;;13.38;3.15;;;;;;;-144.47;27.40;52822.31;4972292;28;20084;-66
2022/07/20 09:21:33;;;;;;;14.50;2.45;;;;;;;-144.47;27.19;52838.22;4984969;28;20022;-65
2022/07/20 09:24:04;;;;;;;9.05;2.85;;;;;;;-144.47;27.03;52850.13;4990502;28;20038;-67
2022/07/20 09:26:31;;;;;;;10.43;2.80;;;;;;;-144.47;27.01;52796.50;4975638;28;20031;-65
2022/07/20 09:31:34;;;;;;;6.82;2.70;;;;;;;-144.47;26.71;52810.41;5005719;28;20050;-69
2022/07/20 09:34:07;;;;;;;16.35;2.70;;;;;;;-144.47;26.54;52830.28;5003205;28;20056;-68
2022/07/20 09:36:36;;;;;;;10.45;2.88;;;;;;;-144.47;26.60;52800.47;5007045;28;20053;-67
2022/07/20 09:39:10;;;;;;;14.77;2.60;;;;;;;-144.47;26.58;52788.56;4995511;28;20038;-69
2022/07/20 09:41:39;;;;;;;9.40;2.83;;;;;;;-144.47;26.01;52784.59;4977211;28;20035;-66
2022/07/20 09:44:05;;;;;;;12.60;2.72;;;;;;;-144.47;25.85;52786.56;4981480;28;20296;-69
2022/07/20 09:46:33;;;;;;;8.65;2.65;;;;;;;-144.47;25.82;52782.59;4982766;28;20047;-68
2022/07/20 09:49:03;;;;;;;8.60;2.40;;;;;;;-144.47;26.13;52800.47;4981484;28;20026;-65
2022/07/20 09:51:34;;;;;;;6.13;1.98;;;;;;;-144.47;25.96;52794.53;4982391;28;20090;-67
2022/07/20 09:54:07;;;;;;;10.65;2.70;;;;;;;-144.47;25.79;52794.53;4982359;28;20312;-67
2022/07/20 09:56:35;;;;;;;8.25;2.65;;;;;;;-144.47;25.77;52804.44;4968191;28;20027;-67
2022/07/20 09:59:04;;;;;;;9.43;2.55;;;;;;;-144.47;25.83;52806.44;4969659;28;20050;-67
2022/07/20 10:01:35;;;;;;;17.45;2.83;;;;;;;-144.47;25.62;52832.25;4979995;28;20082;-65
2022/07/20 10:04:03;;;;;;;9.98;2.47;;;;;;;-144.47;25.52;52802.47;4983950;28;20026;-66
2022/07/20 10:06:29;;;;;;;7.57;2.50;;;;;;;-144.47;25.74;52782.59;4979668;28;20486;-68
2022/07/20 10:08:55;;;;;;;5.40;2.60;;;;;;;-144.47;25.84;52794.53;4982284;28;20166;-67
2022/07/20 10:11:23;;;;;;;8.93;3.22;;;;;;;-144.47;25.94;52788.56;4983956;28;20070;-71
2022/07/20 10:13:50;;;;;;;10.23;2.67;;;;;;;-144.47;25.75;52790.56;4982954;28;20027;-69
2022/07/20 10:16:23;;;;;;;10.07;2.88;;;;;;;-144.47;25.72;52796.50;4972322;28;20141;-67
2022/07/20 10:18:49;;;;;;;15.85;3.17;;;;;;;-144.47;25.57;52782.59;4976872;28;20026;-70
2022/07/20 10:21:34;;;;;;;11.20;2.60;;;;;;;-144.47;25.65;52776.66;4990193;28;20088;-67
2022/07/20 10:24:22;;;;;;;6.60;2.55;;;;;;;-144.47;25.57;52780.63;4984840;28;20019;-67
2022/07/20 10:27:07;;;;;;;5.45;2.55;;;;;;;-144.47;25.60;52792.53;4984394;28;20158;-65
2022/07/20 10:29:41;;;;;;;14.93;2.95;;;;;;;-144.47;25.59;52782.59;4984667;28;20038;-67
2022/07/20 10:32:09;;;;;;;11.27;2.63;;;;;;;-144.47;25.57;52786.56;4991490;28;20023;-66
2022/07/20 10:34:40;;;;;;;9.38;3.00;;;;;;;-144.47;25.33;52782.59;4992263;28;20026;-70
2022/07/20 10:37:20;;;;;;;7.72;2.45;;;;;;;-144.47;25.34;52776.66;4983102;28;20244;-67
2022/07/20 10:39:46;;;;;;;9.23;3.03;;;;;;;-144.47;25.04;52774.66;4975695;28;20473;-66
2022/07/20 10:42:32;;;;;;;9.90;2.53;;;;;;;-144.47;24.72;52764.72;4991840;28;20030;-67
2022/07/20 10:45:16;;;;;;;7.75;2.53;;;;;;;-144.47;24.29;52776.66;4972525;28;20025;-66
2022/07/20 10:47:48;;;;;;;13.45;3.08;;;;;;;-144.47;24.16;52794.53;4986678;28;20030;-69
2022/07/20 10:50:22;;;;;;;9.02;2.85;;;;;;;-144.47;24.29;52752.81;4991742;28;20510;-69
2022/07/20 10:52:53;;;;;;;10.45;3.08;;;;;;;-144.47;23.75;52776.66;4975273;28;20413;-68
2022/07/20 10:55:34;;;;;;;10.30;2.67;;;;;;;-144.47;24.20;52770.69;4982884;28;20026;-68
2022/07/20 10:58:00;;;;;;;10.32;2.50;;;;;;;-144.47;24.20;52772.69;4977143;28;20026;-70
2022/07/20 11:00:36;;;;;;;12.20;2.92;;;;;;;-144.47;24.13;52770.69;4984115;28;20448;-67
2022/07/20 11:03:17;;;;;;;12.98;3.00;;;;;;;-144.47;23.97;52756.78;4980758;28;20030;-69
2022/07/20 11:05:44;;;;;;;13.73;3.17;;;;;;;-144.47;23.98;52784.59;4971983;28;20026;-67
2022/07/20 11:08:11;;;;;;;11.15;2.65;;;;;;;-144.47;23.31;52752.81;4980900;28;20052;-68
2022/07/20 11:10:38;;;;;;;22.77;3.08;;;;;;;-144.47;23.30;52760.75;4977815;28;20144;-67
2022/07/20 11:13:06;;;;;;;12.98;2.78;;;;;;;-144.47;23.50;52770.69;4987029;28;20030;-70
2022/07/20 11:15:52;;;;;;;13.40;2.83;;;;;;;-144.47;23.40;52736.94;4973603;28;20035;-67